Time;durP1;ratioP1;P1;durP2;ratioP2;P2;SDS_P1;SDS_P2;PMS_P1;PMS_P2;Temp;Humidity;BMP_temperature;BMP_pressure;BME280_temperature;BME280_humidity;BME280_pressure;Samples;Min_cycle;Max_cycle;Signal;HPM_P1;HPM_P2
2021/03/05 00:00:30;;;;;;;22.13;11.83;;;;;;;6.12;54.70;100148.88;4859091;28;101216;-73
2021/03/05 00:02:56;;;;;;;22.43;11.93;;;;;;;6.13;54.77;100152.34;4858646;28;96764;-74
2021/03/05 00:05:21;;;;;;;20.77;10.67;;;;;;;6.09;54.69;100156.75;4860171;28;96763;-73
2021/03/05 00:07:47;;;;;;;19.23;10.63;;;;;;;6.02;54.52;100152.56;4859738;28;100838;-73
2021/03/05 00:10:16;;;;;;;19.57;10.80;;;;;;;5.95;55.20;100163.09;4858621;28;101189;-74
2021/03/05 00:12:42;;;;;;;19.57;11.23;;;;;;;5.92;54.98;100170.94;4855817;28;97079;-74
2021/03/05 00:15:09;;;;;;;19.70;10.70;;;;;;;5.94;55.38;100172.66;4877026;28;97010;-74
2021/03/05 00:17:35;;;;;;;16.97;9.87;;;;;;;5.95;55.51;100163.09;4882139;28;97793;-73
2021/03/05 00:20:01;;;;;;;20.30;11.23;;;;;;;5.98;55.01;100163.91;4843018;28;100962;-74
2021/03/05 00:22:26;;;;;;;18.70;10.67;;;;;;;5.93;55.21;100151.81;4859081;28;97114;-74
2021/03/05 00:24:52;;;;;;;16.43;9.60;;;;;;;5.85;55.69;100157.16;4859553;28;96976;-78
2021/03/05 00:27:18;;;;;;;20.60;9.80;;;;;;;5.93;55.45;100164.84;4875055;28;98661;-73
2021/03/05 00:29:43;;;;;;;20.43;10.70;;;;;;;5.93;55.19;100155.31;4864616;28;100955;-73
2021/03/05 00:32:09;;;;;;;19.53;10.47;;;;;;;5.96;55.35;100157.84;4877070;28;96899;-73
2021/03/05 00:34:35;;;;;;;20.50;10.63;;;;;;;5.90;55.61;100160.53;4877894;28;97315;-74
2021/03/05 00:37:02;;;;;;;20.13;10.73;;;;;;;6.00;55.81;100169.09;4877394;28;101233;-73
2021/03/05 00:39:28;;;;;;;20.60;11.67;;;;;;;5.80;56.04;100153.78;4878420;28;98475;-74
2021/03/05 00:41:54;;;;;;;20.73;12.43;;;;;;;5.85;56.47;100168.44;4894121;28;97002;-78
2021/03/05 00:44:20;;;;;;;19.63;12.13;;;;;;;5.79;56.32;100170.28;4877384;28;97267;-73
2021/03/05 00:46:46;;;;;;;22.03;12.57;;;;;;;5.74;56.95;100175.56;4876881;28;99243;-73
2021/03/05 00:49:11;;;;;;;20.07;12.20;;;;;;;5.85;56.76;100181.47;4876682;28;101457;-73
2021/03/05 00:51:37;;;;;;;21.93;13.17;;;;;;;5.83;56.92;100179.78;4878241;28;96599;-76
2021/03/05 00:54:04;;;;;;;22.40;12.70;;;;;;;5.91;56.79;100175.31;4877008;28;97055;-77
2021/03/05 00:56:29;;;;;;;22.10;12.97;;;;;;;5.75;57.26;100169.47;4893794;28;101055;-76
2021/03/05 00:58:55;;;;;;;19.83;12.53;;;;;;;5.84;56.71;100164.09;4877428;28;97839;-79
2021/03/05 01:01:26;;;;;;;21.70;12.25;;;;;;;5.84;57.04;100158.03;4894002;28;97096;-77
2021/03/05 01:03:52;;;;;;;23.73;13.83;;;;;;;5.83;57.08;100153.72;4855662;28;98025;-76
2021/03/05 01:06:25;;;;;;;21.73;12.53;;;;;;;5.88;57.04;100154.50;4874579;28;100781;-76
2021/03/05 01:08:56;;;;;;;23.27;12.50;;;;;;;5.80;56.92;100159.00;4858578;28;101440;-73
2021/03/05 01:11:22;;;;;;;22.90;13.07;;;;;;;5.75;57.45;100159.06;4858478;28;96728;-73
2021/03/05 01:13:48;;;;;;;23.00;12.37;;;;;;;5.78;57.93;100159.00;4841664;28;96922;-76
2021/03/05 01:16:14;;;;;;;21.97;12.20;;;;;;;5.82;57.27;100157.22;4874576;28;98439;-76
2021/03/05 01:18:39;;;;;;;21.67;13.17;;;;;;;5.88;57.33;100163.19;4858128;28;98318;-76
2021/03/05 01:21:05;;;;;;;20.77;12.17;;;;;;;5.77;58.04;100164.25;4857279;28;97217;-76
2021/03/05 01:23:31;;;;;;;24.70;12.37;;;;;;;5.82;57.47;100163.28;4842195;28;97415;-76
2021/03/05 01:25:57;;;;;;;22.43;14.17;;;;;;;5.71;58.52;100167.81;4841227;28;100887;-76
2021/03/05 01:28:23;;;;;;;21.93;12.53;;;;;;;5.77;58.21;100178.13;4858907;28;100922;-76
2021/03/05 01:30:48;;;;;;;23.27;13.13;;;;;;;5.78;58.68;100171.16;4857909;28;97058;-76
2021/03/05 01:33:14;;;;;;;26.23;14.87;;;;;;;5.66;58.93;100170.47;4855620;28;97092;-76
2021/03/05 01:35:40;;;;;;;25.03;14.10;;;;;;;5.68;59.26;100175.69;4841466;28;101148;-76
2021/03/05 01:38:05;;;;;;;22.47;13.93;;;;;;;5.70;59.55;100173.03;4858685;28;97495;-76
2021/03/05 01:40:38;;;;;;;27.37;15.87;;;;;;;5.68;59.40;100176.53;4858640;28;97301;-76
2021/03/05 01:43:08;;;;;;;27.87;13.67;;;;;;;5.74;59.60;100174.72;4860261;28;97360;-77
2021/03/05 01:45:34;;;;;;;22.87;13.10;;;;;;;5.68;59.44;100180.88;4864740;28;97669;-77
2021/03/05 01:48:12;;;;;;;22.27;12.87;;;;;;;5.73;59.85;100179.06;4863717;28;101254;-76
2021/03/05 01:51:00;;;;;;;26.67;14.73;;;;;;;5.73;59.96;100178.19;4864017;28;96935;-78
2021/03/05 01:53:28;;;;;;;19.70;12.63;;;;;;;5.71;59.97;100173.03;4880426;28;96959;-76
2021/03/05 01:55:54;;;;;;;23.67;14.53;;;;;;;5.71;60.08;100179.97;4880706;28;98040;-76
2021/03/05 01:58:20;;;;;;;26.63;14.30;;;;;;;5.66;60.84;100190.47;4880392;28;97952;-76
2021/03/05 02:01:00;;;;;;;22.27;14.17;;;;;;;5.57;60.79;100177.59;4863454;28;97267;-76
2021/03/05 02:03:29;;;;;;;26.37;14.80;;;;;;;5.58;61.28;100181.91;4864054;28;96951;-76
2021/03/05 02:05:55;;;;;;;28.03;16.00;;;;;;;5.66;61.00;100193.06;4888880;28;98591;-76
2021/03/05 02:08:20;;;;;;;26.23;14.93;;;;;;;5.58;61.80;100187.13;4883118;28;101207;-76
2021/03/05 02:10:46;;;;;;;22.87;15.27;;;;;;;5.59;61.53;100181.91;4870682;28;97090;-76
2021/03/05 02:13:11;;;;;;;25.23;15.57;;;;;;;5.58;62.15;100184.50;4864323;28;97138;-76
2021/03/05 02:15:38;;;;;;;25.60;15.57;;;;;;;5.60;62.06;100180.16;4863201;28;100972;-81
2021/03/05 02:18:23;;;;;;;26.20;14.90;;;;;;;5.62;61.76;100179.25;4881576;28;97536;-77
2021/03/05 02:21:29;;;;;;;26.03;16.07;;;;;;;5.62;62.09;100179.25;4863808;28;97507;-76
2021/03/05 02:24:32;;;;;;;28.70;16.10;;;;;;;5.53;62.34;100181.13;4855456;28;97453;-77
2021/03/05 02:27:00;;;;;;;;;;;;;;;5.54;62.34;100177.63;4880627;28;98136;-76
2021/03/05 02:29:44;;;;;;;23.90;15.30;;;;;;;5.62;61.99;100184.44;4863973;28;101700;-77
2021/03/05 02:32:14;;;;;;;28.00;16.87;;;;;;;5.53;62.53;100181.13;4880055;28;97369;-77
2021/03/05 02:34:42;;;;;;;32.87;17.20;;;;;;;5.56;62.27;100184.56;4847709;28;97374;-77
2021/03/05 02:37:10;;;;;;;32.37;18.67;;;;;;;5.53;62.59;100188.94;4863833;28;100486;-76
2021/03/05 02:39:46;;;;;;;28.90;20.07;;;;;;;5.48;62.76;100191.63;4863658;28;101339;-81
2021/03/05 02:42:26;;;;;;;27.70;19.00;;;;;;;5.44;62.99;100195.16;4863774;28;97151;-76
2021/03/05 02:44:57;;;;;;;36.33;19.53;;;;;;;5.43;62.68;100190.81;4869130;28;97377;-76
2021/03/05 02:47:23;;;;;;;26.97;17.53;;;;;;;5.42;63.27;100191.72;4862279;28;101781;-75
2021/03/05 02:49:52;;;;;;;29.27;18.13;;;;;;;5.35;63.32;100196.16;4873936;28;101068;-76
2021/03/05 02:52:20;;;;;;;29.57;18.40;;;;;;;5.48;62.94;100201.19;4881970;28;97150;-76
2021/03/05 02:54:54;;;;;;;31.93;18.57;;;;;;;5.39;63.41;100200.44;4880388;28;97125;-76
2021/03/05 02:57:22;;;;;;;27.70;18.03;;;;;;;5.38;63.69;100195.22;4879560;28;101735;-76
2021/03/05 02:59:48;;;;;;;30.60;18.70;;;;;;;5.39;63.26;100196.97;4878684;28;101227;-76
2021/03/05 03:02:14;;;;;;;31.37;18.57;;;;;;;5.33;64.03;100203.13;4879342;28;97127;-76
2021/03/05 03:04:42;;;;;;;29.67;17.73;;;;;;;5.34;63.68;100199.63;4879342;28;97300;-79
2021/03/05 03:07:11;;;;;;;28.37;18.00;;;;;;;5.44;63.35;100200.38;4860517;28;100739;-76
2021/03/05 03:09:38;;;;;;;29.87;18.53;;;;;;;5.42;63.66;100205.59;4873106;28;97760;-81
2021/03/05 03:12:04;;;;;;;31.03;18.17;;;;;;;5.43;63.60;100201.22;4853724;29;96920;-77
2021/03/05 03:14:31;;;;;;;28.50;18.10;;;;;;;5.42;63.87;100207.31;4870452;28;96875;-76
2021/03/05 03:16:57;;;;;;;30.87;19.80;;;;;;;5.35;63.75;100213.50;4856132;29;101623;-76
2021/03/05 03:19:23;;;;;;;31.60;18.63;;;;;;;5.33;63.82;100216.13;4852869;28;97416;-76
2021/03/05 03:21:49;;;;;;;33.80;19.13;;;;;;;5.33;63.90;100215.28;4860215;28;97050;-76
2021/03/05 03:24:15;;;;;;;28.97;18.17;;;;;;;5.27;64.28;100218.81;4860085;28;97182;-76
2021/03/05 03:26:40;;;;;;;31.30;19.43;;;;;;;5.19;64.56;100216.31;4859521;28;101740;-79
2021/03/05 03:29:07;;;;;;;32.80;19.53;;;;;;;5.20;64.34;100222.38;4844430;28;101329;-76
2021/03/05 03:31:33;;;;;;;32.50;19.83;;;;;;;5.24;64.32;100221.47;4844860;28;97292;-75
2021/03/05 03:34:03;;;;;;;33.27;20.13;;;;;;;5.26;64.47;100218.84;4854906;28;97432;-76
2021/03/05 03:36:29;;;;;;;30.07;17.83;;;;;;;5.25;65.00;100232.75;4844418;28;102028;-76
2021/03/05 03:38:55;;;;;;;35.97;18.80;;;;;;;5.22;64.54;100228.44;4874570;28;101205;-76
2021/03/05 03:41:21;;;;;;;32.43;20.40;;;;;;;5.18;64.88;100221.56;4859183;28;96837;-76
2021/03/05 03:43:47;;;;;;;31.77;19.13;;;;;;;5.28;64.71;100228.34;4874246;28;96797;-76
2021/03/05 03:46:13;;;;;;;29.60;19.40;;;;;;;5.30;64.53;100223.13;4859504;28;98080;-74
2021/03/05 03:48:43;;;;;;;29.53;18.87;;;;;;;5.28;65.10;100230.09;4858542;28;101365;-79
2021/03/05 03:51:10;;;;;;;30.97;19.37;;;;;;;5.21;64.68;100227.56;4859872;28;96736;-74
2021/03/05 03:53:37;;;;;;;31.30;19.17;;;;;;;5.31;64.97;100233.50;4858943;28;97107;-74
2021/03/05 03:56:06;;;;;;;32.40;18.77;;;;;;;5.33;64.77;100231.75;4858620;28;102003;-74
2021/03/05 03:58:32;;;;;;;32.07;19.20;;;;;;;5.27;64.86;100233.59;4875303;28;98047;-73
2021/03/05 04:01:00;;;;;;;31.17;19.13;;;;;;;5.13;65.18;100229.41;4858892;28;97228;-73
2021/03/05 04:03:28;;;;;;;26.97;18.37;;;;;;;5.06;65.37;100242.50;4859011;28;96866;-74
2021/03/05 04:05:55;;;;;;;29.37;17.70;;;;;;;4.97;65.51;100244.38;4842175;28;101760;-73
2021/03/05 04:08:22;;;;;;;28.63;18.40;;;;;;;4.97;65.67;100253.91;4859095;28;97712;-73
2021/03/05 04:10:48;;;;;;;28.03;17.30;;;;;;;5.03;65.62;100255.56;4859016;28;97200;-74
2021/03/05 04:13:15;;;;;;;27.00;18.00;;;;;;;5.06;65.48;100259.00;4856176;29;97225;-74
2021/03/05 04:15:41;;;;;;;26.13;16.47;;;;;;;5.01;65.31;100271.22;4866441;28;97523;-78
2021/03/05 04:18:07;;;;;;;21.80;14.60;;;;;;;4.81;65.32;100270.59;4875314;28;97571;-74
2021/03/05 04:20:36;;;;;;;25.13;15.33;;;;;;;4.78;65.45;100281.03;4859830;28;97482;-73
2021/03/05 04:23:04;;;;;;;20.57;13.13;;;;;;;4.69;65.91;100287.19;4859140;28;96709;-74
2021/03/05 04:25:29;;;;;;;18.80;11.83;;;;;;;4.67;65.31;100283.72;4859084;28;98459;-74
2021/03/05 04:27:55;;;;;;;18.80;12.43;;;;;;;4.52;65.40;100290.81;4858359;28;100763;-76
2021/03/05 04:30:21;;;;;;;15.90;10.17;;;;;;;4.46;65.30;100296.06;4843476;28;96921;-76
2021/03/05 04:32:46;;;;;;;16.00;9.77;;;;;;;4.34;65.32;100309.19;4874783;28;96866;-76
2021/03/05 04:35:12;;;;;;;12.53;7.93;;;;;;;4.29;65.39;100308.34;4878085;28;100978;-76
2021/03/05 04:37:39;;;;;;;15.20;8.73;;;;;;;4.19;65.16;100309.28;4862063;28;101697;-81
2021/03/05 04:40:06;;;;;;;13.00;8.33;;;;;;;4.08;64.95;100307.66;4862116;28;96664;-75
2021/03/05 04:42:32;;;;;;;15.23;8.17;;;;;;;4.07;65.57;100315.44;4874491;28;97119;-75
2021/03/05 04:44:58;;;;;;;11.53;8.23;;;;;;;3.99;65.67;100309.47;4873994;28;98071;-75
2021/03/05 04:47:24;;;;;;;11.43;7.73;;;;;;;3.99;65.64;100325.03;4874790;28;97394;-74
2021/03/05 04:49:49;;;;;;;13.00;7.70;;;;;;;4.06;65.79;100329.31;4873416;28;97380;-74
2021/03/05 04:52:15;;;;;;;10.70;7.50;;;;;;;4.02;65.36;100325.88;4862352;28;97413;-75
2021/03/05 04:54:41;;;;;;;11.23;7.77;;;;;;;3.77;65.90;100330.38;4876731;28;100896;-80
2021/03/05 04:57:06;;;;;;;12.83;8.37;;;;;;;3.74;66.45;100325.19;4877485;28;101353;-75
2021/03/05 04:59:32;;;;;;;12.87;8.17;;;;;;;3.62;66.34;100333.06;4878161;28;97030;-74
2021/03/05 05:01:57;;;;;;;10.70;7.70;;;;;;;3.67;66.32;100333.03;4875783;28;96984;-74
2021/03/05 05:04:23;;;;;;;13.13;8.33;;;;;;;3.78;66.97;100332.09;4858939;28;100793;-74
2021/03/05 05:06:49;;;;;;;12.10;8.07;;;;;;;3.73;66.42;100331.28;4875087;28;97960;-74
2021/03/05 05:09:14;;;;;;;11.73;7.97;;;;;;;3.76;66.19;100331.25;4859070;28;97113;-74
2021/03/05 05:11:40;;;;;;;13.57;8.97;;;;;;;3.83;65.92;100335.50;4858967;28;97270;-79
2021/03/05 05:14:05;;;;;;;12.53;8.27;;;;;;;3.76;65.86;100336.44;4856744;28;101063;-75
2021/03/05 05:16:31;;;;;;;14.07;8.77;;;;;;;3.81;66.46;100345.06;4843079;28;100916;-74
2021/03/05 05:18:56;;;;;;;15.33;9.00;;;;;;;3.72;66.25;100331.25;4882886;28;97208;-75
2021/03/05 05:21:22;;;;;;;15.07;8.40;;;;;;;3.81;65.99;100334.69;4873929;28;96851;-74
2021/03/05 05:23:48;;;;;;;13.40;8.50;;;;;;;3.75;66.51;100339.03;4873396;28;98418;-74
2021/03/05 05:26:14;;;;;;;15.20;9.10;;;;;;;3.84;65.99;100339.00;4858286;28;101085;-74
2021/03/05 05:28:39;;;;;;;12.30;8.70;;;;;;;3.85;65.88;100338.97;4858464;28;96707;-78
2021/03/05 05:31:05;;;;;;;13.43;7.50;;;;;;;3.83;66.31;100353.69;4858422;28;96923;-75
2021/03/05 05:33:31;;;;;;;12.07;7.50;;;;;;;3.67;65.83;100359.00;4871271;28;101574;-75
2021/03/05 05:35:56;;;;;;;13.50;8.30;;;;;;;3.66;65.55;100352.06;4873808;28;97886;-74
2021/03/05 05:38:22;;;;;;;13.03;7.67;;;;;;;3.48;66.70;100364.25;4874677;28;96785;-75
2021/03/05 05:40:47;;;;;;;13.07;8.33;;;;;;;3.35;66.69;100366.06;4858261;28;96918;-75
2021/03/05 05:43:13;;;;;;;13.73;6.97;;;;;;;3.34;66.98;100371.25;4857333;28;101139;-74
2021/03/05 05:45:38;;;;;;;15.80;8.37;;;;;;;3.38;66.81;100388.53;4858126;28;100789;-75
2021/03/05 05:48:05;;;;;;;12.50;6.43;;;;;;;3.29;66.53;100383.38;4873835;28;96758;-75
2021/03/05 05:50:31;;;;;;;11.90;7.00;;;;;;;3.22;66.83;100384.25;4842876;28;96784;-75
2021/03/05 05:52:58;;;;;;;15.23;8.10;;;;;;;3.29;66.66;100389.44;4872914;28;98180;-75
2021/03/05 05:55:24;;;;;;;15.07;7.10;;;;;;;3.27;66.76;100395.50;4862044;28;101456;-75
2021/03/05 05:57:50;;;;;;;11.33;6.07;;;;;;;3.36;65.72;100401.50;4876762;28;97306;-74
2021/03/05 06:00:17;;;;;;;12.73;7.13;;;;;;;3.28;66.10;100405.00;4858920;28;96933;-75
2021/03/05 06:02:44;;;;;;;12.83;6.73;;;;;;;3.39;65.90;100408.44;4850014;28;101469;-80
2021/03/05 06:05:13;;;;;;;10.80;6.43;;;;;;;3.40;65.86;100411.03;4869243;28;98102;-75
2021/03/05 06:07:40;;;;;;;14.33;6.17;;;;;;;3.46;65.27;100417.94;4851109;28;97138;-75
2021/03/05 06:10:06;;;;;;;8.13;5.70;;;;;;;3.48;65.33;100418.78;4854481;28;97002;-75
2021/03/05 06:12:32;;;;;;;10.50;6.23;;;;;;;3.49;64.93;100430.00;4837920;28;101512;-74
2021/03/05 06:14:58;;;;;;;15.17;6.50;;;;;;;3.49;65.19;100436.09;4853006;28;101590;-76
2021/03/05 06:17:43;;;;;;;10.97;5.47;;;;;;;3.57;65.00;100444.69;4868939;28;97465;-75
2021/03/05 06:20:09;;;;;;;10.87;5.20;;;;;;;3.58;64.67;100440.38;4856142;28;97205;-75
2021/03/05 06:22:36;;;;;;;10.53;5.63;;;;;;;3.55;64.04;100450.75;4878001;28;101879;-76
2021/03/05 06:25:02;;;;;;;12.67;5.50;;;;;;;3.53;64.18;100458.56;4855110;28;101189;-75
2021/03/05 06:27:29;;;;;;;13.33;5.40;;;;;;;3.66;64.22;100458.50;4874090;28;96865;-75
2021/03/05 06:29:55;;;;;;;10.27;6.17;;;;;;;3.55;63.58;100468.91;4857946;28;97450;-75
2021/03/05 06:32:20;;;;;;;12.37;5.50;;;;;;;3.50;63.54;100474.16;4892347;28;98006;-75
2021/03/05 06:34:53;;;;;;;10.03;5.37;;;;;;;3.47;63.53;100481.94;4860057;28;100835;-75
2021/03/05 06:37:20;;;;;;;9.33;4.90;;;;;;;3.43;63.92;100490.59;4876014;28;97150;-75
2021/03/05 06:39:59;;;;;;;10.93;5.57;;;;;;;3.50;63.65;100496.66;4875782;28;96874;-75
2021/03/05 06:42:24;;;;;;;12.33;5.27;;;;;;;3.54;63.31;100495.75;4875138;28;98742;-75
2021/03/05 06:44:50;;;;;;;9.10;4.83;;;;;;;3.16;63.50;100500.13;4868567;28;100861;-75
2021/03/05 06:47:17;;;;;;;9.90;4.90;;;;;;;3.12;63.35;100507.94;4872695;28;97253;-75
2021/03/05 06:49:47;;;;;;;7.33;4.17;;;;;;;3.13;62.75;100513.13;4857092;28;97169;-79
2021/03/05 06:52:15;;;;;;;9.67;4.20;;;;;;;3.19;62.91;100527.81;4858808;28;101305;-76
2021/03/05 06:54:42;;;;;;;11.87;4.97;;;;;;;3.31;62.97;100529.53;4861478;28;101044;-75
2021/03/05 06:57:09;;;;;;;9.47;4.60;;;;;;;3.29;62.70;100531.28;4860073;28;96669;-76
2021/03/05 06:59:39;;;;;;;7.07;3.90;;;;;;;3.38;62.44;100539.91;4876108;28;96979;-76
2021/03/05 07:02:06;;;;;;;8.60;4.47;;;;;;;3.59;62.62;100549.41;4860827;28;102036;-76
2021/03/05 07:04:33;;;;;;;9.60;5.63;;;;;;;3.62;62.16;100545.94;4857098;28;101340;-77
2021/03/05 07:07:07;;;;;;;14.90;5.77;;;;;;;3.46;61.86;100547.72;4843251;28;96997;-75
2021/03/05 07:09:52;;;;;;;12.97;6.07;;;;;;;3.53;62.08;100548.56;4854694;28;96858;-75
2021/03/05 07:12:24;;;;;;;12.47;5.97;;;;;;;3.49;62.10;100558.09;4860586;28;99776;-75
2021/03/05 07:15:01;;;;;;;17.42;7.68;;;;;;;3.56;62.42;100564.97;4843977;28;101402;-75
2021/03/05 07:17:29;;;;;;;13.23;6.80;;;;;;;3.50;61.47;100564.13;4875823;28;96782;-75
2021/03/05 07:19:55;;;;;;;11.53;6.50;;;;;;;3.49;62.22;100571.06;4855872;28;97025;-75
2021/03/05 07:22:28;;;;;;;17.20;7.47;;;;;;;3.51;62.43;100571.03;4870427;28;101423;-75
2021/03/05 07:24:55;;;;;;;14.00;6.77;;;;;;;3.43;62.13;100571.03;4878486;28;101149;-75
2021/03/05 07:27:28;;;;;;;14.30;7.57;;;;;;;3.32;62.72;100578.84;4895782;28;96762;-75
2021/03/05 07:29:55;;;;;;;15.13;7.43;;;;;;;3.36;62.35;100583.16;4878489;28;97435;-75
2021/03/05 07:32:24;;;;;;;22.13;7.87;;;;;;;3.33;61.93;100587.50;4866327;28;101045;-76
2021/03/05 07:35:01;;;;;;;13.33;6.33;;;;;;;3.22;61.38;100592.69;4846742;28;100237;-75
2021/03/05 07:37:42;;;;;;;15.73;6.90;;;;;;;3.16;61.80;100592.69;4855806;28;96843;-75
2021/03/05 07:40:11;;;;;;;11.13;6.07;;;;;;;3.23;61.67;100599.63;4867639;28;96719;-87
2021/03/05 07:42:37;;;;;;;16.93;6.93;;;;;;;3.26;61.58;100606.50;4871067;28;97515;-83
2021/03/05 07:45:04;;;;;;;13.20;6.63;;;;;;;3.23;61.46;100604.81;4854720;28;101146;-83
2021/03/05 07:47:31;;;;;;;13.43;6.40;;;;;;;3.32;60.62;100612.59;4856272;28;96874;-88
2021/03/05 07:50:01;;;;;;;12.57;6.63;;;;;;;3.36;59.62;100618.63;4859192;28;97919;-89
2021/03/05 07:52:26;;;;;;;17.50;5.83;;;;;;;3.52;59.81;100617.78;4858994;28;100663;-88
2021/03/05 07:54:52;;;;;;;13.77;7.10;;;;;;;3.73;59.61;100629.00;4867061;28;97876;-86
2021/03/05 07:57:18;;;;;;;11.83;6.27;;;;;;;3.61;58.93;100630.75;4876833;28;97026;-89
2021/03/05 07:59:44;;;;;;;13.03;6.47;;;;;;;3.86;58.66;100636.75;4866647;28;97179;-80
2021/03/05 08:02:11;;;;;;;13.33;6.60;;;;;;;4.24;57.26;100641.00;4853582;28;99984;-83
2021/03/05 08:04:49;;;;;;;12.47;6.37;;;;;;;3.96;58.55;100636.78;4858932;28;98323;-87
2021/03/05 08:07:26;;;;;;;13.90;6.93;;;;;;;3.93;58.67;100649.75;4873970;28;97060;-89
2021/03/05 08:09:52;;;;;;;10.47;6.00;;;;;;;4.11;57.38;100657.50;4856881;28;96974;-75
2021/03/05 08:15:08;;;;;;;11.60;5.97;;;;;;;5.39;53.35;100655.16;4893791;28;98369;-74
2021/03/05 08:17:40;;;;;;;9.90;6.03;;;;;;;5.16;54.43;100657.91;4852370;28;97472;-73
2021/03/05 08:20:16;;;;;;;10.03;5.40;;;;;;;7.24;49.44;100658.34;4838625;28;97138;-74
2021/03/05 08:23:03;;;;;;;14.07;6.67;;;;;;;12.99;39.93;100647.38;4879544;28;101900;-76
2021/03/05 08:25:33;;;;;;;12.10;6.10;;;;;;;15.75;35.66;100645.75;4870039;28;98656;-75
2021/03/05 08:28:00;;;;;;;11.63;6.38;;;;;;;17.03;32.72;100639.03;4852462;28;97134;-75
2021/03/05 08:30:29;;;;;;;12.13;6.00;;;;;;;17.43;31.97;100651.75;4844671;29;97428;-75
2021/03/05 08:33:02;;;;;;;10.48;5.93;;;;;;;18.06;30.27;100657.84;4883326;28;98202;-73
2021/03/05 08:35:31;;;;;;;7.18;4.97;;;;;;;16.43;31.59;100656.34;4870020;28;100881;-75
2021/03/05 08:38:36;;;;;;;10.25;5.40;;;;;;;14.05;34.53;100661.56;4869625;28;98281;-74
2021/03/05 08:41:04;;;;;;;11.88;5.07;;;;;;;13.21;36.44;100660.59;4830344;29;98118;-73
2021/03/05 08:43:32;;;;;;;9.07;5.47;;;;;;;11.68;38.48;100660.84;4810777;29;98548;-73
2021/03/05 08:46:07;;;;;;;7.85;4.32;;;;;;;12.29;37.29;100677.19;4829494;29;97393;-74
2021/03/05 08:48:43;;;;;;;8.02;4.00;;;;;;;15.13;33.18;100670.81;4831458;29;96956;-75
2021/03/05 08:51:20;;;;;;;7.32;3.47;;;;;;;16.18;31.25;100679.78;4798084;29;97677;-74
2021/03/05 08:53:47;;;;;;;7.50;3.90;;;;;;;14.78;33.73;100677.75;4828675;29;98123;-76
2021/03/05 08:56:27;;;;;;;8.45;3.90;;;;;;;12.06;37.12;100682.41;4817702;29;98873;-74
2021/03/05 08:59:06;;;;;;;11.95;3.92;;;;;;;10.69;39.08;100685.81;4819175;29;97140;-73
2021/03/05 09:01:33;;;;;;;8.50;3.92;;;;;;;11.58;38.63;100676.09;4813444;29;98317;-77
2021/03/05 09:04:18;;;;;;;10.20;3.28;;;;;;;10.94;37.70;100688.56;4830130;29;99021;-74
2021/03/05 09:06:48;;;;;;;9.63;3.22;;;;;;;10.18;38.26;100700.28;4811955;29;97557;-74
2021/03/05 09:09:14;;;;;;;9.90;3.20;;;;;;;11.34;39.41;100690.84;4832950;29;97463;-74
2021/03/05 09:11:39;;;;;;;12.32;3.80;;;;;;;11.77;39.00;100687.69;4846697;28;97163;-74
2021/03/05 09:14:25;;;;;;;10.43;3.85;;;;;;;12.03;38.85;100698.28;4879667;28;101354;-74
2021/03/05 09:16:55;;;;;;;13.30;4.00;;;;;;;11.67;38.38;100694.19;4854966;28;98536;-74
2021/03/05 09:19:46;;;;;;;12.43;3.75;;;;;;;10.94;38.31;100702.59;4857974;28;97298;-73
2021/03/05 09:22:15;;;;;;;8.68;3.88;;;;;;;10.63;38.94;100711.31;4887289;28;97165;-74
2021/03/05 09:24:58;;;;;;;6.15;3.25;;;;;;;10.09;40.27;100718.88;4827373;28;101189;-74
2021/03/05 09:27:30;;;;;;;12.35;3.78;;;;;;;9.86;40.64;100711.59;4838560;28;100966;-73
2021/03/05 09:29:57;;;;;;;10.55;2.70;;;;;;;9.25;39.52;100714.78;4871584;28;97334;-77
2021/03/05 09:32:23;;;;;;;8.90;2.40;;;;;;;9.00;40.04;100718.81;4879448;28;97725;-76
2021/03/05 09:34:52;;;;;;;8.90;3.00;;;;;;;8.27;40.33;100723.72;4851927;28;102064;-77
2021/03/05 09:37:19;;;;;;;11.77;2.75;;;;;;;8.15;40.78;100727.41;4851092;28;101665;-74
2021/03/05 09:39:46;;;;;;;12.20;3.13;;;;;;;8.49;40.80;100724.19;4863543;28;96857;-74
2021/03/05 09:42:12;;;;;;;11.82;2.97;;;;;;;8.52;41.00;100725.03;4877873;28;97416;-73
2021/03/05 09:44:45;;;;;;;8.15;3.22;;;;;;;8.05;40.10;100726.69;4850593;28;101096;-74
2021/03/05 09:47:11;;;;;;;13.70;3.63;;;;;;;8.45;40.77;100717.31;4854849;28;101305;-74
2021/03/05 09:49:37;;;;;;;9.70;2.70;;;;;;;8.90;39.81;100715.53;4879328;28;98301;-74
2021/03/05 09:52:02;;;;;;;6.43;2.70;;;;;;;8.38;39.92;100732.22;4866549;28;98176;-75
2021/03/05 09:54:39;;;;;;;10.48;3.03;;;;;;;7.98;41.36;100735.53;4835843;28;100619;-74
2021/03/05 09:57:05;;;;;;;4.07;2.30;;;;;;;7.63;40.35;100743.94;4849328;28;98619;-77
2021/03/05 09:59:45;;;;;;;3.85;1.92;;;;;;;7.03;40.96;100750.84;4841609;28;97431;-73
2021/03/05 10:02:16;;;;;;;16.93;3.00;;;;;;;6.93;41.61;100759.69;4869154;28;98443;-76
2021/03/05 10:04:42;;;;;;;13.38;3.65;;;;;;;6.82;41.83;100758.09;4869576;28;101037;-73
2021/03/05 10:07:08;;;;;;;8.57;3.53;;;;;;;6.97;41.62;100766.59;4861754;28;101535;-74
2021/03/05 10:09:34;;;;;;;6.77;2.57;;;;;;;6.85;41.21;100758.91;4878830;28;96788;-74
2021/03/05 10:11:59;;;;;;;11.17;2.60;;;;;;;6.90;41.00;100757.13;4839815;28;97103;-73
2021/03/05 10:14:29;;;;;;;9.43;2.60;;;;;;;6.72;40.75;100768.63;4883212;28;97999;-75
2021/03/05 10:17:06;;;;;;;13.77;2.70;;;;;;;6.54;39.92;100767.09;4837340;28;101449;-74
2021/03/05 10:19:31;;;;;;;8.47;1.90;;;;;;;6.62;40.83;100768.75;4882257;28;97438;-75
2021/03/05 10:22:00;;;;;;;10.90;2.37;;;;;;;6.92;40.96;100751.88;4840467;28;97266;-77
2021/03/05 10:24:28;;;;;;;10.13;2.40;;;;;;;6.70;40.74;100778.22;4858764;28;99033;-79
2021/03/05 10:27:25;;;;;;;9.60;2.50;;;;;;;6.98;41.25;100777.88;4856973;28;100766;-77
2021/03/05 10:29:58;;;;;;;11.60;3.00;;;;;;;7.39;41.89;100777.38;4870759;28;97015;-80
2021/03/05 10:32:29;;;;;;;8.70;2.67;;;;;;;7.64;41.69;100784.84;4855387;28;97341;-93
2021/03/05 10:34:57;;;;;;;7.38;2.17;;;;;;;7.90;41.13;100787.94;4846472;28;97447;-92
2021/03/05 10:37:23;;;;;;;7.93;1.77;;;;;;;7.69;39.70;100786.53;4854981;28;99606;-92
2021/03/05 10:39:50;;;;;;;8.30;2.30;;;;;;;7.45;39.53;100797.34;4835213;28;97153;-89
2021/03/05 10:42:18;;;;;;;12.60;2.80;;;;;;;7.24;41.01;100801.06;4860822;28;97343;-92
2021/03/05 10:44:46;;;;;;;5.07;2.30;;;;;;;7.20;41.37;100808.09;4850311;28;98459;-88
2021/03/05 10:47:14;;;;;;;14.57;2.47;;;;;;;6.97;41.33;100818.78;4850295;28;97768;-91
2021/03/05 10:49:43;;;;;;;6.53;1.83;;;;;;;6.75;40.79;100812.09;4832392;28;98158;-95
2021/03/05 10:52:11;;;;;;;6.53;2.10;;;;;;;6.29;41.11;100812.53;4859073;28;97502;-89
2021/03/05 10:54:38;;;;;;;7.80;2.20;;;;;;;6.28;41.94;100810.78;4840906;28;101679;-95
2021/03/05 10:57:03;;;;;;;11.00;2.40;;;;;;;6.48;42.17;100815.81;4850826;28;99436;-93
2021/03/05 10:59:29;;;;;;;10.27;2.30;;;;;;;6.58;41.64;100812.28;4870426;28;97849;-96
2021/03/05 11:01:55;;;;;;;7.40;2.30;;;;;;;6.60;41.06;100814.84;4862794;28;97906;-78
2021/03/05 11:04:22;;;;;;;5.90;2.20;;;;;;;6.58;42.16;100820.09;4851256;28;98399;-77
2021/03/05 11:06:49;;;;;;;6.43;2.27;;;;;;;6.83;42.80;100819.81;4847272;28;99041;-78
2021/03/05 11:09:16;;;;;;;8.50;2.17;;;;;;;6.95;42.40;100823.19;4845373;28;98090;-76
2021/03/05 11:11:43;;;;;;;4.50;1.80;;;;;;;6.99;41.95;100822.25;4859094;28;97065;-76
2021/03/05 11:14:09;;;;;;;8.10;1.77;;;;;;;6.58;41.33;100825.31;4848082;28;101159;-75
2021/03/05 11:16:35;;;;;;;10.70;2.10;;;;;;;6.45;42.56;100818.47;4869047;28;101292;-75
2021/03/05 11:19:00;;;;;;;7.37;2.13;;;;;;;6.45;42.03;100823.69;4840915;29;97267;-75
2021/03/05 11:21:26;;;;;;;11.77;3.23;;;;;;;6.46;42.97;100825.44;4872525;28;97076;-75
2021/03/05 11:23:54;;;;;;;9.80;2.07;;;;;;;6.52;43.25;100821.00;4859022;28;98075;-76
2021/03/05 11:26:19;;;;;;;8.13;2.37;;;;;;;6.48;42.55;100824.50;4853526;28;101042;-76
2021/03/05 11:28:45;;;;;;;8.83;2.70;;;;;;;6.55;42.21;100826.19;4837492;28;98066;-78
2021/03/05 11:31:11;;;;;;;7.23;1.90;;;;;;;6.58;42.37;100828.78;4836661;28;97384;-83